LAT weather

La Matua Airport
San Diego, César Department, Colombia

Public forecast

Using degrees Celsius for public forecast. Weather courtesy of forecast.io.

METAR (pilot weather report)

Closest report is Alfonso López Pumarejo Airport, 13.7 nm (25.4 km) N. Retrieved 2019/04/22 01:00 UTC (43 minutes ago):

SKVP 220100Z 06007KT 9999 FEW020CB SCT090 30/21 A2989 RMK CB LTNG/S/SW

TAF (pilot weather forecast)

Forecast is more than 12 hours old.

Closest forecast is Almirante Padilla Airport, 81.7 nm (151.2 km) NNE. Retrieved 2013/12/29 00:30 UTC (5 years ago):

TAF SKRH 262200Z 2700/2724 07010KT 9999 FEW020 SCT200 TEMPO 2701/2705 FEW017 TEMPO 2709/2711 CAVOK TEMPO 2719/2723 12007KT FEW015 TX32/2718Z TN23/2710Z